createdAt,value
2023-01-15T00:00:16.717Z,51.40
2023-01-15T00:02:45.596Z,51.50
2023-01-15T00:05:16.352Z,51.10
2023-01-15T00:07:45.375Z,51.40
2023-01-15T00:10:14.232Z,51.60
2023-01-15T00:12:44.933Z,51.80
2023-01-15T00:15:16.940Z,51.90
2023-01-15T00:17:45.680Z,52.00
2023-01-15T00:20:16.085Z,52.40
2023-01-15T00:22:44.852Z,52.00
2023-01-15T00:25:37.128Z,52.40
2023-01-15T00:28:06.000Z,52.70
2023-01-15T00:30:37.004Z,53.00
2023-01-15T00:34:15.430Z,53.10
2023-01-15T00:37:06.145Z,52.30
2023-01-15T00:39:35.728Z,52.50
2023-01-15T00:42:07.173Z,51.40
2023-01-15T00:44:36.363Z,52.00
2023-01-15T00:47:06.463Z,50.60
2023-01-15T00:49:35.195Z,48.60
2023-01-15T00:52:05.753Z,48.00
2023-01-15T00:54:34.611Z,47.70
2023-01-15T00:57:03.341Z,46.60
2023-01-15T00:59:32.016Z,46.50
2023-01-15T01:02:00.997Z,45.50
2023-01-15T01:04:29.886Z,45.20
2023-01-15T01:06:58.851Z,44.40
2023-01-15T01:09:28.946Z,44.10
2023-01-15T01:11:57.602Z,43.40
2023-01-15T01:14:26.600Z,41.70
2023-01-15T01:16:55.510Z,42.20
2023-01-15T01:19:26.580Z,43.20
2023-01-15T01:21:55.403Z,41.60
2023-01-15T01:24:25.827Z,41.00
2023-01-15T01:26:57.841Z,41.50
2023-01-15T01:29:26.563Z,41.30
2023-01-15T01:31:55.346Z,40.40
2023-01-15T01:34:24.259Z,39.30
2023-01-15T01:36:52.920Z,41.10
2023-01-15T01:39:21.885Z,42.00
2023-01-15T01:41:50.666Z,41.50
2023-01-15T01:45:04.419Z,41.20
2023-01-15T01:47:35.535Z,40.30
2023-01-15T01:50:13.314Z,41.60
2023-01-15T01:52:48.585Z,42.40
2023-01-15T01:55:21.534Z,43.30
2023-01-15T01:57:53.958Z,43.70
2023-01-15T02:00:26.297Z,43.30
2023-01-15T02:02:56.263Z,43.50
2023-01-15T02:05:32.710Z,41.20
2023-01-15T02:08:03.004Z,42.30
2023-01-15T02:10:31.856Z,42.60
2023-01-15T02:13:09.994Z,42.70
2023-01-15T02:15:47.409Z,42.10
2023-01-15T02:18:25.489Z,42.60
2023-01-15T02:21:01.187Z,42.80
2023-01-15T02:24:10.661Z,42.10
2023-01-15T02:27:20.912Z,42.00
2023-01-15T02:30:00.404Z,41.40
2023-01-15T02:32:39.806Z,43.30
2023-01-15T02:35:16.772Z,42.40
2023-01-15T02:37:53.068Z,41.40
2023-01-15T02:40:25.223Z,41.10
2023-01-15T02:42:57.953Z,41.30
2023-01-15T02:45:33.190Z,40.20
2023-01-15T02:48:08.764Z,41.50
2023-01-15T02:50:45.677Z,41.70
2023-01-15T02:53:20.365Z,42.30
2023-01-15T02:55:54.754Z,41.50
2023-01-15T02:58:32.512Z,41.20
2023-01-15T03:01:08.059Z,40.50
2023-01-15T03:03:46.372Z,41.20
2023-01-15T03:06:24.101Z,39.40
2023-01-15T03:08:53.057Z,40.00
2023-01-15T03:11:22.401Z,40.00
2023-01-15T03:14:00.885Z,40.20
2023-01-15T03:16:34.916Z,41.10
2023-01-15T03:19:13.777Z,40.70
2023-01-15T03:21:51.613Z,40.90
2023-01-15T03:24:33.429Z,41.20
2023-01-15T03:27:03.229Z,41.40
2023-01-15T03:29:39.519Z,40.30
2023-01-15T03:32:08.419Z,41.50
2023-01-15T03:34:43.966Z,41.00
2023-01-15T03:37:13.389Z,41.70
2023-01-15T03:39:43.376Z,42.00
2023-01-15T03:42:25.720Z,41.90
2023-01-15T03:45:08.052Z,43.50
2023-01-15T03:47:55.411Z,44.10
2023-01-15T03:50:34.646Z,44.50
2023-01-15T03:53:13.063Z,44.60
2023-01-15T03:55:49.312Z,44.30
2023-01-15T03:58:25.439Z,45.40
2023-01-15T04:00:59.967Z,45.80
2023-01-15T04:03:31.945Z,46.00
2023-01-15T04:06:03.965Z,47.70
2023-01-15T04:08:36.920Z,48.50
2023-01-15T04:11:06.501Z,49.00
2023-01-15T04:13:35.119Z,49.30
2023-01-15T04:16:05.686Z,49.20
2023-01-15T04:18:34.413Z,49.10
2023-01-15T04:21:05.395Z,49.10
2023-01-15T04:23:34.070Z,48.90
2023-01-15T04:26:02.703Z,48.90
2023-01-15T04:28:31.230Z,49.00
2023-01-15T04:31:00.716Z,49.00
2023-01-15T04:33:30.934Z,48.70
2023-01-15T04:36:02.311Z,49.00
2023-01-15T04:38:30.993Z,49.30
2023-01-15T04:41:20.660Z,49.70
2023-01-15T04:44:08.164Z,49.90
2023-01-15T04:46:39.325Z,50.00
2023-01-15T04:49:13.512Z,51.10
2023-01-15T04:51:42.769Z,51.50
2023-01-15T04:54:14.708Z,51.60
2023-01-15T04:56:45.936Z,51.50
2023-01-15T04:59:15.628Z,51.30
2023-01-15T05:01:58.083Z,51.10
2023-01-15T05:04:33.395Z,51.10
2023-01-15T05:07:03.395Z,50.80
2023-01-15T05:09:32.280Z,50.90
2023-01-15T05:12:01.034Z,51.10
2023-01-15T05:14:30.276Z,50.70
2023-01-15T05:16:58.957Z,50.70
2023-01-15T05:19:27.651Z,50.30
2023-01-15T05:21:57.670Z,50.00
2023-01-15T05:24:26.571Z,50.30
2023-01-15T05:26:55.338Z,50.40
2023-01-15T05:29:24.340Z,50.60
2023-01-15T05:31:53.067Z,50.40
2023-01-15T05:34:21.711Z,50.70
2023-01-15T05:36:50.361Z,50.80
2023-01-15T05:39:20.344Z,51.00
2023-01-15T05:41:51.706Z,51.10
2023-01-15T05:44:25.084Z,50.80
2023-01-15T05:46:56.715Z,50.40
2023-01-15T05:49:29.942Z,51.10
2023-01-15T05:52:00.625Z,51.50
2023-01-15T05:54:33.520Z,51.10
2023-01-15T05:57:02.936Z,50.70
2023-01-15T05:59:33.540Z,51.00
2023-01-15T06:02:02.446Z,51.20
2023-01-15T06:04:31.065Z,51.20
2023-01-15T06:07:00.115Z,51.80
2023-01-15T06:09:30.144Z,52.30
2023-01-15T06:11:59.227Z,52.40
2023-01-15T06:14:28.001Z,52.50
2023-01-15T06:16:56.724Z,52.60
2023-01-15T06:19:25.317Z,54.20
2023-01-15T06:21:54.042Z,54.00
2023-01-15T06:24:23.161Z,54.70
2023-01-15T06:26:53.179Z,54.70
2023-01-15T06:29:21.801Z,54.80
2023-01-15T06:31:50.512Z,55.00
2023-01-15T06:34:19.461Z,55.20
2023-01-15T06:36:48.080Z,55.70
2023-01-15T06:39:16.848Z,55.80
2023-01-15T06:42:02.683Z,55.70
2023-01-15T06:44:50.467Z,55.70
2023-01-15T06:47:24.836Z,55.90
2023-01-15T06:49:57.587Z,56.10
2023-01-15T06:52:28.429Z,57.00
2023-01-15T06:54:57.487Z,57.30
2023-01-15T06:57:26.487Z,57.30
2023-01-15T06:59:57.861Z,57.40
2023-01-15T07:02:26.619Z,58.10
2023-01-15T07:04:55.314Z,57.90
2023-01-15T07:07:24.490Z,58.10
2023-01-15T07:09:57.873Z,57.30
2023-01-15T07:12:28.978Z,57.80
2023-01-15T07:14:59.154Z,57.70
2023-01-15T07:17:28.021Z,58.50
2023-01-15T07:20:05.713Z,58.90
2023-01-15T07:22:46.388Z,58.80
2023-01-15T07:25:15.219Z,59.30
2023-01-15T07:27:43.965Z,59.30
2023-01-15T07:30:34.048Z,58.90
2023-01-15T07:33:02.801Z,59.40
2023-01-15T07:35:33.356Z,59.50
2023-01-15T07:38:06.321Z,58.80
2023-01-15T07:40:37.170Z,59.30
2023-01-15T07:43:23.270Z,59.40
2023-01-15T07:46:11.263Z,58.40
2023-01-15T07:49:08.955Z,58.80
2023-01-15T07:51:40.835Z,59.20
2023-01-15T07:54:11.010Z,58.80
2023-01-15T07:56:40.039Z,58.60
2023-01-15T07:59:08.770Z,58.00
2023-01-15T08:01:40.477Z,57.00
2023-01-15T08:04:10.028Z,56.50
2023-01-15T08:06:39.291Z,56.60
2023-01-15T08:09:07.972Z,57.10
2023-01-15T08:11:54.048Z,57.40
2023-01-15T08:14:40.740Z,56.40
2023-01-15T08:17:10.743Z,56.40
2023-01-15T08:19:40.476Z,58.90
2023-01-15T08:22:12.050Z,58.80
2023-01-15T08:24:40.913Z,58.20
2023-01-15T08:27:17.957Z,57.40
2023-01-15T08:29:49.891Z,56.80
2023-01-15T08:32:28.894Z,57.70
2023-01-15T08:34:59.589Z,58.40
2023-01-15T08:37:29.606Z,58.20
2023-01-15T08:39:58.646Z,58.00
2023-01-15T08:42:34.255Z,58.80
2023-01-15T08:45:03.679Z,59.10
2023-01-15T08:47:36.388Z,58.60
2023-01-15T08:50:06.768Z,56.60
2023-01-15T08:52:36.279Z,57.50
2023-01-15T08:55:06.344Z,57.10
2023-01-15T08:57:36.037Z,57.00
2023-01-15T09:00:06.055Z,57.20
2023-01-15T09:02:36.988Z,56.60
2023-01-15T09:05:07.329Z,56.00
2023-01-15T09:07:37.505Z,55.50
2023-01-15T09:10:08.287Z,55.70
2023-01-15T09:12:37.868Z,55.80
2023-01-15T09:15:08.321Z,55.30
2023-01-15T09:17:41.113Z,55.00
2023-01-15T09:20:17.203Z,54.70
2023-01-15T09:22:46.539Z,54.80
2023-01-15T09:25:16.628Z,56.40
2023-01-15T09:27:46.136Z,56.40
2023-01-15T09:30:20.736Z,56.90
2023-01-15T09:32:51.542Z,56.40
2023-01-15T09:35:22.784Z,57.40
2023-01-15T09:37:54.629Z,56.90
2023-01-15T09:40:55.880Z,57.50
2023-01-15T09:43:50.625Z,57.80
2023-01-15T09:46:27.488Z,56.90
2023-01-15T09:49:11.690Z,56.40
2023-01-15T09:51:54.189Z,55.40
2023-01-15T09:54:44.706Z,56.00
2023-01-15T09:57:15.316Z,55.30
2023-01-15T09:59:48.701Z,55.80
2023-01-15T10:02:27.185Z,54.80
2023-01-15T10:05:08.148Z,56.20
2023-01-15T10:07:48.185Z,56.50
2023-01-15T10:10:37.598Z,57.10
2023-01-15T10:13:19.054Z,57.30
2023-01-15T10:15:52.440Z,57.60
2023-01-15T10:18:47.757Z,57.90
2023-01-15T10:21:40.421Z,57.50
2023-01-15T10:24:19.494Z,56.30
2023-01-15T10:27:07.515Z,56.20
2023-01-15T10:29:48.115Z,56.60
2023-01-15T10:32:35.979Z,55.80
2023-01-15T10:35:28.199Z,55.00
2023-01-15T10:38:08.004Z,55.70
2023-01-15T10:41:14.561Z,56.10
2023-01-15T10:43:55.311Z,55.70
2023-01-15T10:46:30.332Z,55.40
2023-01-15T10:49:06.604Z,54.90
2023-01-15T10:51:45.741Z,54.00
2023-01-15T10:54:28.898Z,54.20
2023-01-15T10:57:12.570Z,54.40
2023-01-15T10:59:54.711Z,54.90
2023-01-15T11:02:36.992Z,55.70
2023-01-15T11:05:08.181Z,55.70
2023-01-15T11:08:03.301Z,55.90
2023-01-15T11:10:34.749Z,55.40
2023-01-15T11:13:39.100Z,55.00
2023-01-15T11:16:33.171Z,55.30
2023-01-15T11:19:23.595Z,54.60
2023-01-15T11:21:55.504Z,54.90
2023-01-15T11:24:24.279Z,55.10
2023-01-15T11:26:55.352Z,55.00
2023-01-15T11:29:35.033Z,55.60
2023-01-15T11:32:03.738Z,53.80
2023-01-15T11:34:32.176Z,55.60
2023-01-15T11:37:05.544Z,56.40
2023-01-15T11:39:34.648Z,57.40
2023-01-15T11:42:26.099Z,57.80
2023-01-15T11:45:14.786Z,57.60
2023-01-15T11:48:10.349Z,56.10
2023-01-15T11:50:51.082Z,56.40
2023-01-15T11:53:26.945Z,57.20
2023-01-15T11:56:04.368Z,57.10
2023-01-15T11:58:42.357Z,56.60
2023-01-15T12:01:15.469Z,56.00
2023-01-15T12:03:45.433Z,55.60
2023-01-15T12:06:17.261Z,54.60
2023-01-15T12:08:51.859Z,55.80
2023-01-15T12:11:51.666Z,56.50
2023-01-15T12:15:30.423Z,56.40
2023-01-15T12:18:50.199Z,56.10
2023-01-15T12:21:44.007Z,56.20
2023-01-15T12:24:36.151Z,57.10
2023-01-15T12:27:24.403Z,57.20
2023-01-15T12:30:02.019Z,57.40
2023-01-15T12:32:41.890Z,57.00
2023-01-15T12:35:26.587Z,57.10
2023-01-15T12:38:01.308Z,56.70
2023-01-15T12:40:40.642Z,54.70
2023-01-15T12:43:38.067Z,56.10
2023-01-15T12:46:08.897Z,56.00
2023-01-15T12:48:47.803Z,56.30
2023-01-15T12:51:33.572Z,57.40
2023-01-15T12:54:08.840Z,56.80
2023-01-15T12:56:55.267Z,57.20
2023-01-15T12:59:35.510Z,56.80
2023-01-15T13:02:15.803Z,56.30
2023-01-15T13:04:51.889Z,56.50
2023-01-15T13:07:35.173Z,56.00
2023-01-15T13:10:17.797Z,55.70
2023-01-15T13:12:46.642Z,56.20
2023-01-15T13:15:17.819Z,56.30
2023-01-15T13:18:04.843Z,56.90
2023-01-15T13:20:48.101Z,56.80
2023-01-15T13:23:40.724Z,55.80
2023-01-15T13:26:50.351Z,55.30
2023-01-15T13:29:29.453Z,55.20
2023-01-15T13:32:12.181Z,55.00
2023-01-15T13:34:49.354Z,55.10
2023-01-15T13:37:27.932Z,54.10
2023-01-15T13:40:09.567Z,53.40
2023-01-15T13:42:41.253Z,53.50
2023-01-15T13:45:37.448Z,51.70
2023-01-15T13:48:15.938Z,52.40
2023-01-15T13:50:55.236Z,52.10
2023-01-15T13:53:32.832Z,51.70
2023-01-15T13:56:06.467Z,50.80
2023-01-15T13:58:39.165Z,50.90
2023-01-15T14:01:24.759Z,50.20
2023-01-15T14:04:09.298Z,51.10
2023-01-15T14:06:41.784Z,50.70
2023-01-15T14:09:15.751Z,50.30
2023-01-15T14:12:06.954Z,51.00
2023-01-15T14:15:01.590Z,51.10
2023-01-15T14:18:02.128Z,51.40
2023-01-15T14:21:15.324Z,51.30
2023-01-15T14:24:34.111Z,50.70
2023-01-15T14:27:21.860Z,51.00
2023-01-15T14:30:25.467Z,49.80
2023-01-15T14:33:12.428Z,52.20
2023-01-15T14:35:49.343Z,52.60
2023-01-15T14:38:24.173Z,52.40
2023-01-15T14:41:00.951Z,52.90
2023-01-15T14:43:33.646Z,51.10
2023-01-15T14:46:19.807Z,51.40
2023-01-15T14:48:48.585Z,51.10
2023-01-15T14:51:25.662Z,51.20
2023-01-15T14:53:58.785Z,50.00
2023-01-15T14:56:33.481Z,49.40
2023-01-15T14:59:14.354Z,48.90
2023-01-15T15:01:51.855Z,50.80
2023-01-15T15:04:32.884Z,49.80
2023-01-15T15:07:07.406Z,47.80
2023-01-15T15:09:43.833Z,47.50
2023-01-15T15:12:33.296Z,47.40
2023-01-15T15:15:11.865Z,47.10
2023-01-15T15:18:08.038Z,46.70
2023-01-15T15:20:51.265Z,45.10
2023-01-15T15:23:32.816Z,45.20
2023-01-15T15:26:05.480Z,46.00
2023-01-15T15:28:35.708Z,46.20
2023-01-15T15:31:05.481Z,45.90
2023-01-15T15:33:41.568Z,46.10
2023-01-15T15:36:11.177Z,45.50
2023-01-15T15:38:44.797Z,45.00
2023-01-15T15:41:14.976Z,45.50
2023-01-15T15:44:10.450Z,45.60
2023-01-15T15:46:57.062Z,45.90
2023-01-15T15:49:26.814Z,45.80
2023-01-15T15:51:57.263Z,45.40
2023-01-15T15:54:28.488Z,45.70
2023-01-15T15:57:07.316Z,45.30
2023-01-15T15:59:41.020Z,46.60
2023-01-15T16:02:20.990Z,46.00
2023-01-15T16:04:52.751Z,45.80
2023-01-15T16:07:27.703Z,45.80
2023-01-15T16:10:01.890Z,45.90
2023-01-15T16:12:38.045Z,45.70
2023-01-15T16:15:17.366Z,46.40
2023-01-15T16:17:47.709Z,45.60
2023-01-15T16:20:19.950Z,45.80
2023-01-15T16:22:53.154Z,45.80
2023-01-15T16:25:28.557Z,45.80
2023-01-15T16:27:57.744Z,46.00
2023-01-15T16:30:32.352Z,45.70
2023-01-15T16:33:04.409Z,45.70
2023-01-15T16:35:37.225Z,45.50
2023-01-15T16:38:07.589Z,45.90
2023-01-15T16:40:41.140Z,45.80
2023-01-15T16:43:14.527Z,46.30
2023-01-15T16:46:02.628Z,46.30
2023-01-15T16:48:38.042Z,46.10
2023-01-15T16:51:33.261Z,46.30
2023-01-15T16:54:04.535Z,46.10
2023-01-15T16:56:54.419Z,46.40
2023-01-15T16:59:57.251Z,46.80
2023-01-15T17:02:35.029Z,47.10
2023-01-15T17:05:16.167Z,47.20
2023-01-15T17:07:50.889Z,47.60
2023-01-15T17:10:24.157Z,48.20
2023-01-15T17:12:56.189Z,48.20
2023-01-15T17:15:46.231Z,48.70
2023-01-15T17:18:29.001Z,47.80
2023-01-15T17:20:58.761Z,47.90
2023-01-15T17:23:35.081Z,48.10
2023-01-15T17:26:05.502Z,48.20
2023-01-15T17:28:34.177Z,48.00
2023-01-15T17:31:04.304Z,47.90
2023-01-15T17:33:34.431Z,47.70
2023-01-15T17:36:03.164Z,47.50
2023-01-15T17:38:34.363Z,47.90
2023-01-15T17:41:07.107Z,47.80
2023-01-15T17:43:36.512Z,48.00
2023-01-15T17:46:05.346Z,48.00
2023-01-15T17:48:35.661Z,47.90
2023-01-15T17:51:06.985Z,47.90
2023-01-15T17:53:36.172Z,47.70
2023-01-15T17:56:22.562Z,48.20
2023-01-15T17:59:08.863Z,48.40
2023-01-15T18:02:00.442Z,48.50
2023-01-15T18:04:52.666Z,48.50
2023-01-15T18:07:26.481Z,48.40
2023-01-15T18:09:57.496Z,48.30
2023-01-15T18:12:26.196Z,48.20
2023-01-15T18:14:54.880Z,48.00
2023-01-15T18:17:23.637Z,48.20
2023-01-15T18:19:55.714Z,48.60
2023-01-15T18:22:24.568Z,48.70
2023-01-15T18:24:53.227Z,48.80
2023-01-15T18:27:21.935Z,48.70
2023-01-15T18:29:50.553Z,48.40
2023-01-15T18:32:20.723Z,48.40
2023-01-15T18:34:49.425Z,48.50
2023-01-15T18:37:19.479Z,48.50
2023-01-15T18:39:48.220Z,48.80
2023-01-15T18:42:34.269Z,49.00
2023-01-15T18:45:20.328Z,49.40
2023-01-15T18:47:49.114Z,49.80
2023-01-15T18:50:18.440Z,49.90
2023-01-15T18:52:51.521Z,50.00
2023-01-15T18:55:21.856Z,50.20
2023-01-15T18:57:50.825Z,49.90
2023-01-15T19:00:20.941Z,49.80
2023-01-15T19:02:50.170Z,49.60
2023-01-15T19:05:19.942Z,49.80
2023-01-15T19:07:50.185Z,49.60
2023-01-15T19:10:20.237Z,49.40
2023-01-15T19:12:49.041Z,48.90
2023-01-15T19:15:37.947Z,49.40
2023-01-15T19:18:24.859Z,49.60
2023-01-15T19:20:54.205Z,49.80
2023-01-15T19:23:24.490Z,49.80
2023-01-15T19:25:53.218Z,49.90
2023-01-15T19:28:23.056Z,49.70
2023-01-15T19:31:05.717Z,49.60
2023-01-15T19:33:34.949Z,49.90
2023-01-15T19:36:04.213Z,49.90
2023-01-15T19:38:36.468Z,49.90
2023-01-15T19:41:29.216Z,49.80
2023-01-15T19:44:15.168Z,49.80
2023-01-15T19:47:01.723Z,50.00
2023-01-15T19:49:55.010Z,49.90
2023-01-15T19:52:36.239Z,50.50
2023-01-15T19:55:10.819Z,50.80
2023-01-15T19:57:39.986Z,51.20
2023-01-15T20:00:12.550Z,52.00
2023-01-15T20:02:42.207Z,52.70
2023-01-15T20:05:13.025Z,52.80
2023-01-15T20:07:42.926Z,52.50
2023-01-15T20:10:16.857Z,52.50
2023-01-15T20:13:03.510Z,52.10
2023-01-15T20:15:33.511Z,51.90
2023-01-15T20:18:02.117Z,51.70
2023-01-15T20:20:30.727Z,51.30
2023-01-15T20:22:59.595Z,50.60
2023-01-15T20:25:30.666Z,50.40
2023-01-15T20:28:00.968Z,49.70
2023-01-15T20:30:30.660Z,48.90
2023-01-15T20:32:59.580Z,48.60
2023-01-15T20:35:31.867Z,48.90
2023-01-15T20:38:00.922Z,49.00
2023-01-15T20:40:31.274Z,48.80
2023-01-15T20:43:17.488Z,48.90
2023-01-15T20:45:46.187Z,49.10
2023-01-15T20:48:32.109Z,48.50
2023-01-15T20:51:03.794Z,48.70
2023-01-15T20:53:34.784Z,48.70
2023-01-15T20:56:13.468Z,48.70
2023-01-15T20:58:42.366Z,48.40
2023-01-15T21:01:11.606Z,48.60
2023-01-15T21:03:41.597Z,48.40
2023-01-15T21:06:11.043Z,48.60
2023-01-15T21:08:41.030Z,48.70
2023-01-15T21:11:11.152Z,48.20
2023-01-15T21:13:44.867Z,48.20
2023-01-15T21:16:15.860Z,48.20
2023-01-15T21:18:45.410Z,48.10
2023-01-15T21:21:17.435Z,47.90
2023-01-15T21:23:46.719Z,47.70
2023-01-15T21:26:17.955Z,47.60
2023-01-15T21:28:46.747Z,47.60
2023-01-15T21:31:16.322Z,47.80
2023-01-15T21:33:45.120Z,47.80
2023-01-15T21:36:16.294Z,48.10
2023-01-15T21:38:44.938Z,48.20
2023-01-15T21:41:17.217Z,48.40
2023-01-15T21:44:17.793Z,48.20
2023-01-15T21:46:46.408Z,48.50
2023-01-15T21:49:16.657Z,48.30
2023-01-15T21:51:45.570Z,48.60
2023-01-15T21:54:14.677Z,48.50
2023-01-15T21:56:46.308Z,48.20
2023-01-15T21:59:15.612Z,48.20
2023-01-15T22:01:44.517Z,48.00
2023-01-15T22:04:13.306Z,47.50
2023-01-15T22:06:42.141Z,47.50
2023-01-15T22:09:10.930Z,47.60
2023-01-15T22:11:46.011Z,48.10
2023-01-15T22:14:18.854Z,48.10
2023-01-15T22:16:48.727Z,47.80
2023-01-15T22:19:20.046Z,47.90
2023-01-15T22:21:49.987Z,47.70
2023-01-15T22:24:19.792Z,48.00
2023-01-15T22:26:54.434Z,48.10
2023-01-15T22:29:26.576Z,47.90
2023-01-15T22:31:55.803Z,47.80
2023-01-15T22:34:27.658Z,47.80
2023-01-15T22:36:57.330Z,47.60
2023-01-15T22:39:27.878Z,47.50
2023-01-15T22:42:14.117Z,47.30
2023-01-15T22:44:45.195Z,47.70
2023-01-15T22:47:14.226Z,48.10
2023-01-15T22:49:42.982Z,48.00
2023-01-15T22:52:11.769Z,48.10
2023-01-15T22:54:41.453Z,48.30
2023-01-15T22:57:10.104Z,48.30
2023-01-15T22:59:38.792Z,48.20
2023-01-15T23:02:10.072Z,48.20
2023-01-15T23:04:38.815Z,47.90
2023-01-15T23:07:07.547Z,47.60
2023-01-15T23:09:37.109Z,47.60
2023-01-15T23:12:07.476Z,47.60
2023-01-15T23:14:36.233Z,47.20
2023-01-15T23:17:04.844Z,47.00
2023-01-15T23:19:34.995Z,46.90
2023-01-15T23:22:03.625Z,45.70
2023-01-15T23:24:32.205Z,45.70
2023-01-15T23:27:00.746Z,45.90
2023-01-15T23:29:29.440Z,45.80
2023-01-15T23:31:57.905Z,46.20
2023-01-15T23:34:26.470Z,46.10
2023-01-15T23:36:56.425Z,46.10
2023-01-15T23:39:25.126Z,45.60
2023-01-15T23:42:11.176Z,45.90
2023-01-15T23:44:57.186Z,46.00
2023-01-15T23:47:25.753Z,46.20
2023-01-15T23:49:54.332Z,46.10
2023-01-15T23:52:25.203Z,46.00
2023-01-15T23:54:53.751Z,45.80
2023-01-15T23:57:22.388Z,45.50
2023-01-15T23:59:50.904Z,45.60
